sensor_id;sensor_type;location;lat;lon;timestamp;temperature;humidity
33815;DHT22;20121;51.910;8.406;2023-03-14T00:01:19;11.10;99.90
33815;DHT22;20121;51.910;8.406;2023-03-14T00:03:48;11.00;99.90
33815;DHT22;20121;51.910;8.406;2023-03-14T00:06:14;11.10;99.90
33815;DHT22;20121;51.910;8.406;2023-03-14T00:08:41;11.10;99.90
33815;DHT22;20121;51.910;8.406;2023-03-14T00:11:09;11.10;99.90
33815;DHT22;20121;51.910;8.406;2023-03-14T00:13:35;11.10;99.90
33815;DHT22;20121;51.910;8.406;2023-03-14T00:16:06;11.10;99.90
33815;DHT22;20121;51.910;8.406;2023-03-14T00:18:33;11.00;99.90
33815;DHT22;20121;51.910;8.406;2023-03-14T00:21:00;11.10;99.90
33815;DHT22;20121;51.910;8.406;2023-03-14T00:23:27;11.00;99.90
33815;DHT22;20121;51.910;8.406;2023-03-14T00:25:53;11.00;99.90
33815;DHT22;20121;51.910;8.406;2023-03-14T00:28:19;11.00;99.90
33815;DHT22;20121;51.910;8.406;2023-03-14T00:30:45;10.90;99.90
33815;DHT22;20121;51.910;8.406;2023-03-14T00:33:10;10.90;99.90
33815;DHT22;20121;51.910;8.406;2023-03-14T00:35:36;10.80;99.90
33815;DHT22;20121;51.910;8.406;2023-03-14T00:38:01;10.80;99.90
33815;DHT22;20121;51.910;8.406;2023-03-14T00:40:27;10.80;99.90
33815;DHT22;20121;51.910;8.406;2023-03-14T00:42:52;10.80;99.90
33815;DHT22;20121;51.910;8.406;2023-03-14T00:45:18;10.80;99.90
33815;DHT22;20121;51.910;8.406;2023-03-14T00:47:43;10.80;99.90
33815;DHT22;20121;51.910;8.406;2023-03-14T00:50:11;10.80;99.90
33815;DHT22;20121;51.910;8.406;2023-03-14T00:52:36;10.80;99.90
33815;DHT22;20121;51.910;8.406;2023-03-14T00:55:03;10.90;99.90
33815;DHT22;20121;51.910;8.406;2023-03-14T00:57:28;10.90;99.90
33815;DHT22;20121;51.910;8.406;2023-03-14T00:59:54;10.90;99.90
33815;DHT22;20121;51.910;8.406;2023-03-14T01:02:19;10.90;99.90
33815;DHT22;20121;51.910;8.406;2023-03-14T01:04:47;10.90;99.90
33815;DHT22;20121;51.910;8.406;2023-03-14T01:07:13;10.90;99.90
33815;DHT22;20121;51.910;8.406;2023-03-14T01:09:39;11.00;99.90
33815;DHT22;20121;51.910;8.406;2023-03-14T01:12:04;11.00;99.90
33815;DHT22;20121;51.910;8.406;2023-03-14T01:14:30;11.00;99.90
33815;DHT22;20121;51.910;8.406;2023-03-14T01:16:56;11.00;99.90
33815;DHT22;20121;51.910;8.406;2023-03-14T01:19:26;11.00;99.90
33815;DHT22;20121;51.910;8.406;2023-03-14T01:21:53;11.00;99.90
33815;DHT22;20121;51.910;8.406;2023-03-14T01:24:19;10.90;99.90
33815;DHT22;20121;51.910;8.406;2023-03-14T01:26:44;11.40;99.90
33815;DHT22;20121;51.910;8.406;2023-03-14T01:29:10;11.10;99.90
33815;DHT22;20121;51.910;8.406;2023-03-14T01:31:35;11.10;99.90
33815;DHT22;20121;51.910;8.406;2023-03-14T01:34:01;11.10;99.90
33815;DHT22;20121;51.910;8.406;2023-03-14T01:36:27;11.10;99.90
33815;DHT22;20121;51.910;8.406;2023-03-14T01:38:53;11.10;99.90
33815;DHT22;20121;51.910;8.406;2023-03-14T01:41:21;11.40;99.90
33815;DHT22;20121;51.910;8.406;2023-03-14T01:43:47;11.10;99.90
33815;DHT22;20121;51.910;8.406;2023-03-14T01:51:32;11.10;99.90
33815;DHT22;20121;51.910;8.406;2023-03-14T01:54:04;11.10;99.90
33815;DHT22;20121;51.910;8.406;2023-03-14T01:56:32;11.20;99.90
33815;DHT22;20121;51.910;8.406;2023-03-14T01:58:59;11.20;99.90
33815;DHT22;20121;51.910;8.406;2023-03-14T02:01:26;11.20;99.90
33815;DHT22;20121;51.910;8.406;2023-03-14T02:03:59;11.40;99.90
33815;DHT22;20121;51.910;8.406;2023-03-14T02:06:35;11.20;99.90
33815;DHT22;20121;51.910;8.406;2023-03-14T02:09:03;11.20;99.90
33815;DHT22;20121;51.910;8.406;2023-03-14T02:11:30;11.20;99.90
33815;DHT22;20121;51.910;8.406;2023-03-14T02:13:57;11.30;99.90
33815;DHT22;20121;51.910;8.406;2023-03-14T02:16:24;11.20;99.90
33815;DHT22;20121;51.910;8.406;2023-03-14T02:18:49;11.30;99.90
33815;DHT22;20121;51.910;8.406;2023-03-14T02:24:13;11.20;99.90
33815;DHT22;20121;51.910;8.406;2023-03-14T02:27:03;11.20;99.90
33815;DHT22;20121;51.910;8.406;2023-03-14T02:29:31;11.10;99.90
33815;DHT22;20121;51.910;8.406;2023-03-14T02:31:58;10.70;99.90
33815;DHT22;20121;51.910;8.406;2023-03-14T02:34:25;10.50;99.90
33815;DHT22;20121;51.910;8.406;2023-03-14T02:36:51;9.90;99.90
33815;DHT22;20121;51.910;8.406;2023-03-14T02:39:26;10.20;99.90
33815;DHT22;20121;51.910;8.406;2023-03-14T02:41:53;10.20;99.90
33815;DHT22;20121;51.910;8.406;2023-03-14T02:44:18;9.60;99.90
33815;DHT22;20121;51.910;8.406;2023-03-14T02:46:44;9.90;99.90
33815;DHT22;20121;51.910;8.406;2023-03-14T02:49:14;9.80;99.90
33815;DHT22;20121;51.910;8.406;2023-03-14T02:51:41;9.70;99.90
33815;DHT22;20121;51.910;8.406;2023-03-14T02:54:08;9.50;99.90
33815;DHT22;20121;51.910;8.406;2023-03-14T02:56:34;9.60;99.90
33815;DHT22;20121;51.910;8.406;2023-03-14T02:59:03;9.50;99.90
33815;DHT22;20121;51.910;8.406;2023-03-14T03:01:28;9.40;99.90
33815;DHT22;20121;51.910;8.406;2023-03-14T03:03:54;9.40;99.90
33815;DHT22;20121;51.910;8.406;2023-03-14T03:06:19;9.40;99.90
33815;DHT22;20121;51.910;8.406;2023-03-14T03:08:45;9.40;99.90
33815;DHT22;20121;51.910;8.406;2023-03-14T03:11:11;9.30;99.90
33815;DHT22;20121;51.910;8.406;2023-03-14T03:13:37;9.30;99.90
33815;DHT22;20121;51.910;8.406;2023-03-14T03:16:03;9.20;99.90
33815;DHT22;20121;51.910;8.406;2023-03-14T03:18:29;9.20;99.90
33815;DHT22;20121;51.910;8.406;2023-03-14T03:20:54;9.20;99.90
33815;DHT22;20121;51.910;8.406;2023-03-14T03:23:20;9.10;99.90
33815;DHT22;20121;51.910;8.406;2023-03-14T03:25:50;9.10;99.90
33815;DHT22;20121;51.910;8.406;2023-03-14T03:28:16;9.10;99.90
33815;DHT22;20121;51.910;8.406;2023-03-14T03:30:43;9.00;99.90
33815;DHT22;20121;51.910;8.406;2023-03-14T03:33:09;9.00;99.90
33815;DHT22;20121;51.910;8.406;2023-03-14T03:35:35;8.70;99.90
33815;DHT22;20121;51.910;8.406;2023-03-14T03:38:00;8.90;99.90
33815;DHT22;20121;51.910;8.406;2023-03-14T03:40:26;8.90;99.90
33815;DHT22;20121;51.910;8.406;2023-03-14T03:42:52;8.90;99.90
33815;DHT22;20121;51.910;8.406;2023-03-14T03:45:17;8.90;99.90
33815;DHT22;20121;51.910;8.406;2023-03-14T03:47:43;8.90;99.90
33815;DHT22;20121;51.910;8.406;2023-03-14T03:50:09;8.90;99.90
33815;DHT22;20121;51.910;8.406;2023-03-14T03:52:35;8.90;99.90
33815;DHT22;20121;51.910;8.406;2023-03-14T03:55:00;8.90;99.90
33815;DHT22;20121;51.910;8.406;2023-03-14T03:57:26;8.90;99.90
33815;DHT22;20121;51.910;8.406;2023-03-14T03:59:51;8.90;99.90
33815;DHT22;20121;51.910;8.406;2023-03-14T04:02:17;9.00;99.90
33815;DHT22;20121;51.910;8.406;2023-03-14T04:04:42;8.90;99.90
33815;DHT22;20121;51.910;8.406;2023-03-14T04:07:08;9.00;99.90
33815;DHT22;20121;51.910;8.406;2023-03-14T04:09:34;8.90;99.90
33815;DHT22;20121;51.910;8.406;2023-03-14T04:12:00;9.00;99.90
33815;DHT22;20121;51.910;8.406;2023-03-14T04:14:25;9.00;99.90
33815;DHT22;20121;51.910;8.406;2023-03-14T04:16:51;9.00;99.90
33815;DHT22;20121;51.910;8.406;2023-03-14T04:19:17;9.00;99.90
33815;DHT22;20121;51.910;8.406;2023-03-14T04:21:42;8.90;99.90
33815;DHT22;20121;51.910;8.406;2023-03-14T04:24:12;8.80;99.90
33815;DHT22;20121;51.910;8.406;2023-03-14T04:26:38;9.10;99.90
33815;DHT22;20121;51.910;8.406;2023-03-14T04:29:04;8.90;99.90
33815;DHT22;20121;51.910;8.406;2023-03-14T04:31:29;8.80;99.90
33815;DHT22;20121;51.910;8.406;2023-03-14T04:33:55;8.90;99.90
33815;DHT22;20121;51.910;8.406;2023-03-14T04:36:21;8.80;99.90
33815;DHT22;20121;51.910;8.406;2023-03-14T04:38:46;8.70;99.90
33815;DHT22;20121;51.910;8.406;2023-03-14T04:41:12;8.60;99.90
33815;DHT22;20121;51.910;8.406;2023-03-14T04:43:37;7.80;99.90
33815;DHT22;20121;51.910;8.406;2023-03-14T04:46:03;8.60;99.90
33815;DHT22;20121;51.910;8.406;2023-03-14T04:48:29;8.70;99.90
33815;DHT22;20121;51.910;8.406;2023-03-14T04:50:55;8.70;99.90
33815;DHT22;20121;51.910;8.406;2023-03-14T04:53:21;8.40;99.90
33815;DHT22;20121;51.910;8.406;2023-03-14T04:55:54;8.60;99.90
33815;DHT22;20121;51.910;8.406;2023-03-14T04:58:20;8.60;99.90
33815;DHT22;20121;51.910;8.406;2023-03-14T05:00:46;8.60;99.90
33815;DHT22;20121;51.910;8.406;2023-03-14T05:03:12;8.60;99.90
33815;DHT22;20121;51.910;8.406;2023-03-14T05:05:39;8.60;99.90
33815;DHT22;20121;51.910;8.406;2023-03-14T05:08:05;8.60;99.90
33815;DHT22;20121;51.910;8.406;2023-03-14T05:10:30;8.60;99.90
33815;DHT22;20121;51.910;8.406;2023-03-14T05:12:56;8.60;99.90
33815;DHT22;20121;51.910;8.406;2023-03-14T05:15:22;8.60;99.90
33815;DHT22;20121;51.910;8.406;2023-03-14T05:17:47;7.90;99.90
33815;DHT22;20121;51.910;8.406;2023-03-14T05:20:14;8.30;99.90
33815;DHT22;20121;51.910;8.406;2023-03-14T05:22:41;8.70;99.90
33815;DHT22;20121;51.910;8.406;2023-03-14T05:25:07;8.70;99.90
33815;DHT22;20121;51.910;8.406;2023-03-14T05:27:34;8.70;99.90
33815;DHT22;20121;51.910;8.406;2023-03-14T05:29:59;8.70;99.90
33815;DHT22;20121;51.910;8.406;2023-03-14T05:32:25;8.70;99.90
33815;DHT22;20121;51.910;8.406;2023-03-14T05:34:50;8.70;99.90
33815;DHT22;20121;51.910;8.406;2023-03-14T05:37:16;8.80;99.90
33815;DHT22;20121;51.910;8.406;2023-03-14T05:39:42;8.80;99.90
33815;DHT22;20121;51.910;8.406;2023-03-14T05:42:07;8.80;99.90
33815;DHT22;20121;51.910;8.406;2023-03-14T05:44:33;8.80;99.90
33815;DHT22;20121;51.910;8.406;2023-03-14T05:46:58;8.90;99.90
33815;DHT22;20121;51.910;8.406;2023-03-14T05:49:24;8.90;99.90
33815;DHT22;20121;51.910;8.406;2023-03-14T05:51:51;8.90;99.90
33815;DHT22;20121;51.910;8.406;2023-03-14T05:54:16;8.70;99.90
33815;DHT22;20121;51.910;8.406;2023-03-14T05:56:42;8.90;99.90
33815;DHT22;20121;51.910;8.406;2023-03-14T05:59:07;9.00;99.90
33815;DHT22;20121;51.910;8.406;2023-03-14T06:01:34;9.00;99.90
33815;DHT22;20121;51.910;8.406;2023-03-14T06:04:00;9.00;99.90
33815;DHT22;20121;51.910;8.406;2023-03-14T06:06:25;9.00;99.90
33815;DHT22;20121;51.910;8.406;2023-03-14T06:08:51;8.90;99.90
33815;DHT22;20121;51.910;8.406;2023-03-14T06:11:17;8.90;99.90
33815;DHT22;20121;51.910;8.406;2023-03-14T06:13:42;8.80;99.90
33815;DHT22;20121;51.910;8.406;2023-03-14T06:16:08;8.70;99.90
33815;DHT22;20121;51.910;8.406;2023-03-14T06:18:34;8.80;99.90
33815;DHT22;20121;51.910;8.406;2023-03-14T06:20:59;8.80;99.90
33815;DHT22;20121;51.910;8.406;2023-03-14T06:23:25;8.80;99.90
33815;DHT22;20121;51.910;8.406;2023-03-14T06:25:51;8.90;99.90
33815;DHT22;20121;51.910;8.406;2023-03-14T06:30:43;8.70;99.90
33815;DHT22;20121;51.910;8.406;2023-03-14T06:33:08;8.70;99.90
33815;DHT22;20121;51.910;8.406;2023-03-14T06:35:34;9.20;99.90
33815;DHT22;20121;51.910;8.406;2023-03-14T06:38:00;8.60;99.90
33815;DHT22;20121;51.910;8.406;2023-03-14T06:40:25;8.70;99.90
33815;DHT22;20121;51.910;8.406;2023-03-14T06:42:51;8.60;99.90
33815;DHT22;20121;51.910;8.406;2023-03-14T06:45:17;8.60;99.90
33815;DHT22;20121;51.910;8.406;2023-03-14T06:47:43;8.90;99.90
33815;DHT22;20121;51.910;8.406;2023-03-14T06:50:09;8.60;99.90
33815;DHT22;20121;51.910;8.406;2023-03-14T06:52:35;8.60;99.90
33815;DHT22;20121;51.910;8.406;2023-03-14T06:55:01;8.60;99.90
33815;DHT22;20121;51.910;8.406;2023-03-14T06:57:27;8.60;99.90
33815;DHT22;20121;51.910;8.406;2023-03-14T06:59:52;8.60;99.90
33815;DHT22;20121;51.910;8.406;2023-03-14T07:02:18;8.80;99.90
33815;DHT22;20121;51.910;8.406;2023-03-14T07:04:43;8.60;99.90
33815;DHT22;20121;51.910;8.406;2023-03-14T07:07:09;8.60;99.90
33815;DHT22;20121;51.910;8.406;2023-03-14T07:09:35;8.60;99.90
33815;DHT22;20121;51.910;8.406;2023-03-14T07:12:02;8.60;99.90
33815;DHT22;20121;51.910;8.406;2023-03-14T07:14:28;8.60;99.90
33815;DHT22;20121;51.910;8.406;2023-03-14T07:16:54;8.80;99.90
33815;DHT22;20121;51.910;8.406;2023-03-14T07:19:19;8.60;99.90
33815;DHT22;20121;51.910;8.406;2023-03-14T07:21:45;8.60;99.90
33815;DHT22;20121;51.910;8.406;2023-03-14T07:24:10;8.60;99.90
33815;DHT22;20121;51.910;8.406;2023-03-14T07:26:36;8.70;99.90
33815;DHT22;20121;51.910;8.406;2023-03-14T07:29:02;8.80;99.90
33815;DHT22;20121;51.910;8.406;2023-03-14T07:31:30;8.80;99.90
33815;DHT22;20121;51.910;8.406;2023-03-14T07:33:56;9.00;99.90
33815;DHT22;20121;51.910;8.406;2023-03-14T07:36:22;9.10;99.90
33815;DHT22;20121;51.910;8.406;2023-03-14T07:38:48;9.10;99.90
33815;DHT22;20121;51.910;8.406;2023-03-14T07:41:13;9.10;99.90
33815;DHT22;20121;51.910;8.406;2023-03-14T07:43:39;9.10;99.90
33815;DHT22;20121;51.910;8.406;2023-03-14T07:46:05;9.20;99.90
33815;DHT22;20121;51.910;8.406;2023-03-14T07:48:31;9.30;99.90
33815;DHT22;20121;51.910;8.406;2023-03-14T07:50:57;9.20;99.90
33815;DHT22;20121;51.910;8.406;2023-03-14T07:53:24;9.00;99.90
33815;DHT22;20121;51.910;8.406;2023-03-14T07:55:51;9.20;99.90
33815;DHT22;20121;51.910;8.406;2023-03-14T07:58:17;9.20;99.90
33815;DHT22;20121;51.910;8.406;2023-03-14T08:00:43;9.30;99.90
33815;DHT22;20121;51.910;8.406;2023-03-14T08:03:09;9.30;99.90
33815;DHT22;20121;51.910;8.406;2023-03-14T08:05:36;9.30;99.90
33815;DHT22;20121;51.910;8.406;2023-03-14T08:08:02;9.40;99.90
33815;DHT22;20121;51.910;8.406;2023-03-14T08:10:28;9.40;99.90
33815;DHT22;20121;51.910;8.406;2023-03-14T08:12:56;9.20;99.90
33815;DHT22;20121;51.910;8.406;2023-03-14T08:15:22;9.50;99.90
33815;DHT22;20121;51.910;8.406;2023-03-14T08:17:48;9.60;99.90
33815;DHT22;20121;51.910;8.406;2023-03-14T08:20:23;9.60;99.90
33815;DHT22;20121;51.910;8.406;2023-03-14T08:22:49;9.60;99.90
33815;DHT22;20121;51.910;8.406;2023-03-14T08:25:15;11.10;99.90
33815;DHT22;20121;51.910;8.406;2023-03-14T08:27:41;9.70;99.90
33815;DHT22;20121;51.910;8.406;2023-03-14T08:30:11;9.70;99.90
33815;DHT22;20121;51.910;8.406;2023-03-14T08:32:38;9.70;99.90
33815;DHT22;20121;51.910;8.406;2023-03-14T08:35:04;9.80;99.90
33815;DHT22;20121;51.910;8.406;2023-03-14T08:37:34;9.80;99.90
33815;DHT22;20121;51.910;8.406;2023-03-14T08:40:01;9.80;99.90
33815;DHT22;20121;51.910;8.406;2023-03-14T08:42:26;9.80;99.90
33815;DHT22;20121;51.910;8.406;2023-03-14T08:44:52;9.80;99.90
33815;DHT22;20121;51.910;8.406;2023-03-14T08:47:18;9.80;99.90
33815;DHT22;20121;51.910;8.406;2023-03-14T08:49:44;9.90;99.90
33815;DHT22;20121;51.910;8.406;2023-03-14T08:52:09;9.90;99.90
33815;DHT22;20121;51.910;8.406;2023-03-14T08:54:35;10.00;99.90
33815;DHT22;20121;51.910;8.406;2023-03-14T08:57:01;10.00;99.90
33815;DHT22;20121;51.910;8.406;2023-03-14T08:59:26;10.00;99.90
33815;DHT22;20121;51.910;8.406;2023-03-14T09:01:52;10.10;99.90
33815;DHT22;20121;51.910;8.406;2023-03-14T09:04:18;10.10;99.90
33815;DHT22;20121;51.910;8.406;2023-03-14T09:06:43;9.60;99.90
33815;DHT22;20121;51.910;8.406;2023-03-14T09:09:09;10.30;99.90
33815;DHT22;20121;51.910;8.406;2023-03-14T09:11:35;10.30;99.90
33815;DHT22;20121;51.910;8.406;2023-03-14T09:14:01;10.40;99.90
33815;DHT22;20121;51.910;8.406;2023-03-14T09:16:26;10.50;99.90
33815;DHT22;20121;51.910;8.406;2023-03-14T09:18:52;10.60;99.90
33815;DHT22;20121;51.910;8.406;2023-03-14T09:21:20;10.60;99.90
33815;DHT22;20121;51.910;8.406;2023-03-14T09:23:46;10.80;99.90
33815;DHT22;20121;51.910;8.406;2023-03-14T09:26:13;10.80;99.90
33815;DHT22;20121;51.910;8.406;2023-03-14T09:28:38;10.80;99.90
33815;DHT22;20121;51.910;8.406;2023-03-14T09:31:09;10.80;99.90
33815;DHT22;20121;51.910;8.406;2023-03-14T09:33:35;10.90;99.90
33815;DHT22;20121;51.910;8.406;2023-03-14T09:36:01;10.90;99.90
33815;DHT22;20121;51.910;8.406;2023-03-14T09:38:27;10.90;99.90
33815;DHT22;20121;51.910;8.406;2023-03-14T09:40:53;10.90;99.90
33815;DHT22;20121;51.910;8.406;2023-03-14T09:43:21;10.10;99.90
33815;DHT22;20121;51.910;8.406;2023-03-14T09:45:48;11.00;99.90
33815;DHT22;20121;51.910;8.406;2023-03-14T09:48:20;11.00;99.90
33815;DHT22;20121;51.910;8.406;2023-03-14T09:50:50;11.10;99.90
33815;DHT22;20121;51.910;8.406;2023-03-14T09:53:20;11.10;99.90
33815;DHT22;20121;51.910;8.406;2023-03-14T09:55:49;11.20;99.90
33815;DHT22;20121;51.910;8.406;2023-03-14T09:58:21;11.10;99.90
33815;DHT22;20121;51.910;8.406;2023-03-14T10:00:47;11.20;99.90
33815;DHT22;20121;51.910;8.406;2023-03-14T10:05:40;11.20;99.90
33815;DHT22;20121;51.910;8.406;2023-03-14T10:08:09;11.20;99.90
33815;DHT22;20121;51.910;8.406;2023-03-14T10:10:35;11.10;99.90
33815;DHT22;20121;51.910;8.406;2023-03-14T10:13:25;11.00;99.90
33815;DHT22;20121;51.910;8.406;2023-03-14T10:18:24;10.90;99.90
33815;DHT22;20121;51.910;8.406;2023-03-14T10:21:09;11.60;99.90
33815;DHT22;20121;51.910;8.406;2023-03-14T10:23:42;10.80;99.90
33815;DHT22;20121;51.910;8.406;2023-03-14T10:26:26;10.80;99.90
33815;DHT22;20121;51.910;8.406;2023-03-14T10:28:54;10.80;99.90
33815;DHT22;20121;51.910;8.406;2023-03-14T10:31:26;10.80;99.90
33815;DHT22;20121;51.910;8.406;2023-03-14T10:34:03;10.80;99.90
33815;DHT22;20121;51.910;8.406;2023-03-14T10:36:31;10.80;99.90
33815;DHT22;20121;51.910;8.406;2023-03-14T10:39:18;10.70;99.90
33815;DHT22;20121;51.910;8.406;2023-03-14T10:41:50;10.70;99.90
33815;DHT22;20121;51.910;8.406;2023-03-14T10:44:20;10.40;99.90
33815;DHT22;20121;51.910;8.406;2023-03-14T10:46:56;10.20;99.90
33815;DHT22;20121;51.910;8.406;2023-03-14T10:49:35;10.10;99.90
33815;DHT22;20121;51.910;8.406;2023-03-14T10:52:23;9.70;99.90
33815;DHT22;20121;51.910;8.406;2023-03-14T10:55:03;9.50;99.90
33815;DHT22;20121;51.910;8.406;2023-03-14T10:57:29;9.30;99.90
33815;DHT22;20121;51.910;8.406;2023-03-14T10:59:56;9.30;99.90
33815;DHT22;20121;51.910;8.406;2023-03-14T11:05:21;8.90;99.90
33815;DHT22;20121;51.910;8.406;2023-03-14T11:07:53;8.90;99.90
33815;DHT22;20121;51.910;8.406;2023-03-14T11:10:32;8.80;99.90
33815;DHT22;20121;51.910;8.406;2023-03-14T11:13:17;8.80;99.90
33815;DHT22;20121;51.910;8.406;2023-03-14T11:35:47;8.00;99.90
33815;DHT22;20121;51.910;8.406;2023-03-14T11:38:31;7.80;99.90
33815;DHT22;20121;51.910;8.406;2023-03-14T11:40:59;7.60;99.90
33815;DHT22;20121;51.910;8.406;2023-03-14T11:43:41;7.50;99.90
33815;DHT22;20121;51.910;8.406;2023-03-14T11:46:17;7.30;99.90
33815;DHT22;20121;51.910;8.406;2023-03-14T11:51:31;7.00;99.90
33815;DHT22;20121;51.910;8.406;2023-03-14T11:54:11;6.80;99.90
33815;DHT22;20121;51.910;8.406;2023-03-14T11:56:53;6.80;99.90
33815;DHT22;20121;51.910;8.406;2023-03-14T12:02:03;6.60;99.90
33815;DHT22;20121;51.910;8.406;2023-03-14T12:10:23;6.60;99.90
33815;DHT22;20121;51.910;8.406;2023-03-14T12:12:49;6.50;99.90
33815;DHT22;20121;51.910;8.406;2023-03-14T12:15:20;6.50;99.90
33815;DHT22;20121;51.910;8.406;2023-03-14T12:17:47;6.50;99.90
33815;DHT22;20121;51.910;8.406;2023-03-14T12:20:21;6.50;99.90
33815;DHT22;20121;51.910;8.406;2023-03-14T12:22:55;6.60;99.90
33815;DHT22;20121;51.910;8.406;2023-03-14T12:25:26;6.60;99.90
33815;DHT22;20121;51.910;8.406;2023-03-14T12:30:37;6.80;99.90
33815;DHT22;20121;51.910;8.406;2023-03-14T12:33:14;6.80;99.90
33815;DHT22;20121;51.910;8.406;2023-03-14T12:35:49;6.90;99.90
33815;DHT22;20121;51.910;8.406;2023-03-14T12:38:40;7.00;99.90
33815;DHT22;20121;51.910;8.406;2023-03-14T12:41:34;7.10;99.90
33815;DHT22;20121;51.910;8.406;2023-03-14T12:49:49;7.20;99.90
33815;DHT22;20121;51.910;8.406;2023-03-14T12:55:13;7.30;99.90
33815;DHT22;20121;51.910;8.406;2023-03-14T12:58:44;7.10;99.90
33815;DHT22;20121;51.910;8.406;2023-03-14T13:00:40;7.40;99.90
33815;DHT22;20121;51.910;8.406;2023-03-14T13:06:53;7.50;99.90
33815;DHT22;20121;51.910;8.406;2023-03-14T13:12:14;7.50;99.90
33815;DHT22;20121;51.910;8.406;2023-03-14T13:14:48;7.50;99.90
33815;DHT22;20121;51.910;8.406;2023-03-14T13:17:19;7.50;99.90
33815;DHT22;20121;51.910;8.406;2023-03-14T13:19:51;7.50;99.90
33815;DHT22;20121;51.910;8.406;2023-03-14T13:22:24;7.40;99.90
33815;DHT22;20121;51.910;8.406;2023-03-14T13:25:01;7.40;99.90
33815;DHT22;20121;51.910;8.406;2023-03-14T13:27:30;7.20;99.90
33815;DHT22;20121;51.910;8.406;2023-03-14T13:29:57;7.20;99.90
33815;DHT22;20121;51.910;8.406;2023-03-14T13:32:27;7.10;99.90
33815;DHT22;20121;51.910;8.406;2023-03-14T13:34:59;7.00;99.90
33815;DHT22;20121;51.910;8.406;2023-03-14T13:37:26;6.90;99.90
33815;DHT22;20121;51.910;8.406;2023-03-14T13:39:54;6.90;99.90
33815;DHT22;20121;51.910;8.406;2023-03-14T13:42:29;6.90;99.90
33815;DHT22;20121;51.910;8.406;2023-03-14T13:44:56;6.90;99.90
33815;DHT22;20121;51.910;8.406;2023-03-14T13:47:24;7.00;99.90
33815;DHT22;20121;51.910;8.406;2023-03-14T13:49:50;7.00;99.90
33815;DHT22;20121;51.910;8.406;2023-03-14T13:52:28;7.00;99.90
33815;DHT22;20121;51.910;8.406;2023-03-14T13:54:55;7.10;99.90
33815;DHT22;20121;51.910;8.406;2023-03-14T13:57:21;7.20;99.90
33815;DHT22;20121;51.910;8.406;2023-03-14T13:59:59;7.20;99.90
33815;DHT22;20121;51.910;8.406;2023-03-14T14:02:26;7.20;99.90
33815;DHT22;20121;51.910;8.406;2023-03-14T14:04:52;7.30;99.90
33815;DHT22;20121;51.910;8.406;2023-03-14T14:07:18;7.40;99.90
33815;DHT22;20121;51.910;8.406;2023-03-14T14:09:52;7.40;99.90
33815;DHT22;20121;51.910;8.406;2023-03-14T14:15:02;7.60;99.90
33815;DHT22;20121;51.910;8.406;2023-03-14T14:20:02;7.70;99.90
33815;DHT22;20121;51.910;8.406;2023-03-14T14:22:30;7.80;99.90
33815;DHT22;20121;51.910;8.406;2023-03-14T14:24:56;7.80;99.90
33815;DHT22;20121;51.910;8.406;2023-03-14T14:27:39;7.90;99.90
33815;DHT22;20121;51.910;8.406;2023-03-14T14:30:25;7.90;99.90
33815;DHT22;20121;51.910;8.406;2023-03-14T14:32:52;7.90;99.90
33815;DHT22;20121;51.910;8.406;2023-03-14T14:35:51;7.80;99.90
33815;DHT22;20121;51.910;8.406;2023-03-14T14:38:17;7.70;99.90
33815;DHT22;20121;51.910;8.406;2023-03-14T14:40:47;7.60;99.90
33815;DHT22;20121;51.910;8.406;2023-03-14T14:43:20;7.50;99.90
33815;DHT22;20121;51.910;8.406;2023-03-14T14:45:52;7.70;99.90
33815;DHT22;20121;51.910;8.406;2023-03-14T14:48:21;7.50;99.90
33815;DHT22;20121;51.910;8.406;2023-03-14T14:53:38;7.40;99.90
33815;DHT22;20121;51.910;8.406;2023-03-14T14:56:17;7.40;99.90
33815;DHT22;20121;51.910;8.406;2023-03-14T14:58:47;7.30;99.90
33815;DHT22;20121;51.910;8.406;2023-03-14T15:01:22;7.30;99.90
33815;DHT22;20121;51.910;8.406;2023-03-14T15:03:50;7.20;99.90
33815;DHT22;20121;51.910;8.406;2023-03-14T15:06:17;7.10;99.90
33815;DHT22;20121;51.910;8.406;2023-03-14T15:08:45;7.10;99.90
33815;DHT22;20121;51.910;8.406;2023-03-14T15:11:19;7.10;99.90
33815;DHT22;20121;51.910;8.406;2023-03-14T15:13:46;7.10;99.90
33815;DHT22;20121;51.910;8.406;2023-03-14T15:16:12;7.10;99.90
33815;DHT22;20121;51.910;8.406;2023-03-14T15:18:39;7.00;99.90
33815;DHT22;20121;51.910;8.406;2023-03-14T15:21:05;7.00;99.90
33815;DHT22;20121;51.910;8.406;2023-03-14T15:23:30;7.00;99.90
33815;DHT22;20121;51.910;8.406;2023-03-14T15:25:56;7.00;99.90
33815;DHT22;20121;51.910;8.406;2023-03-14T15:28:27;7.00;99.90
33815;DHT22;20121;51.910;8.406;2023-03-14T15:30:56;7.10;99.90
33815;DHT22;20121;51.910;8.406;2023-03-14T15:33:22;7.10;99.90
33815;DHT22;20121;51.910;8.406;2023-03-14T15:35:52;7.10;99.90
33815;DHT22;20121;51.910;8.406;2023-03-14T15:38:20;7.10;99.70
33815;DHT22;20121;51.910;8.406;2023-03-14T15:40:51;7.20;99.90
33815;DHT22;20121;51.910;8.406;2023-03-14T15:43:17;7.20;99.30
33815;DHT22;20121;51.910;8.406;2023-03-14T15:45:43;7.20;99.00
33815;DHT22;20121;51.910;8.406;2023-03-14T15:48:18;7.20;99.00
33815;DHT22;20121;51.910;8.406;2023-03-14T15:50:44;7.10;99.00
33815;DHT22;20121;51.910;8.406;2023-03-14T15:53:11;6.90;99.90
33815;DHT22;20121;51.910;8.406;2023-03-14T15:55:36;7.20;99.70
33815;DHT22;20121;51.910;8.406;2023-03-14T15:58:02;7.20;99.20
33815;DHT22;20121;51.910;8.406;2023-03-14T16:00:28;7.20;99.90
33815;DHT22;20121;51.910;8.406;2023-03-14T16:02:54;7.20;99.40
33815;DHT22;20121;51.910;8.406;2023-03-14T16:05:19;7.30;99.90
33815;DHT22;20121;51.910;8.406;2023-03-14T16:07:45;7.10;98.10
33815;DHT22;20121;51.910;8.406;2023-03-14T16:10:12;7.10;98.30
33815;DHT22;20121;51.910;8.406;2023-03-14T16:12:38;7.00;98.70
33815;DHT22;20121;51.910;8.406;2023-03-14T16:15:04;7.00;99.00
33815;DHT22;20121;51.910;8.406;2023-03-14T16:17:31;7.00;99.40
33815;DHT22;20121;51.910;8.406;2023-03-14T16:19:57;7.00;99.80
33815;DHT22;20121;51.910;8.406;2023-03-14T16:22:23;7.00;99.30
33815;DHT22;20121;51.910;8.406;2023-03-14T16:24:48;7.00;99.50
33815;DHT22;20121;51.910;8.406;2023-03-14T16:27:14;7.00;99.50
33815;DHT22;20121;51.910;8.406;2023-03-14T16:29:41;6.90;99.30
33815;DHT22;20121;51.910;8.406;2023-03-14T16:32:08;6.90;99.50
33815;DHT22;20121;51.910;8.406;2023-03-14T16:34:33;6.90;99.40
33815;DHT22;20121;51.910;8.406;2023-03-14T16:36:59;7.10;99.90
33815;DHT22;20121;51.910;8.406;2023-03-14T16:39:25;6.80;99.70
33815;DHT22;20121;51.910;8.406;2023-03-14T16:41:53;6.80;99.90
33815;DHT22;20121;51.910;8.406;2023-03-14T16:44:18;6.70;99.80
33815;DHT22;20121;51.910;8.406;2023-03-14T16:46:44;6.60;99.80
33815;DHT22;20121;51.910;8.406;2023-03-14T16:49:10;6.60;99.70
33815;DHT22;20121;51.910;8.406;2023-03-14T16:51:35;6.60;99.90
33815;DHT22;20121;51.910;8.406;2023-03-14T16:54:01;6.60;99.90
33815;DHT22;20121;51.910;8.406;2023-03-14T16:56:26;6.50;99.90
33815;DHT22;20121;51.910;8.406;2023-03-14T16:58:52;6.60;99.90
33815;DHT22;20121;51.910;8.406;2023-03-14T17:01:18;6.50;99.90
33815;DHT22;20121;51.910;8.406;2023-03-14T17:03:45;6.50;99.90